createdAt,value
2019-03-18T00:01:29.748Z,96643.72
2019-03-18T00:03:05.995Z,96650.84
2019-03-18T00:04:42.312Z,96654.70
2019-03-18T00:06:22.951Z,96660.65
2019-03-18T00:07:58.682Z,96656.41
2019-03-18T00:09:34.256Z,96653.73
2019-03-18T00:11:10.484Z,96653.16
2019-03-18T00:12:46.053Z,96658.16
2019-03-18T00:14:21.979Z,96654.88
2019-03-18T00:15:58.013Z,96650.45
2019-03-18T00:17:33.174Z,96657.19
2019-03-18T00:19:08.820Z,96658.73
2019-03-18T00:20:44.497Z,96659.50
2019-03-18T00:22:19.939Z,96661.61
2019-03-18T00:23:56.254Z,96662.39
2019-03-18T00:25:32.649Z,96659.89
2019-03-18T00:27:08.296Z,96656.80
2019-03-18T00:28:44.174Z,96656.63
2019-03-18T00:30:19.618Z,96664.89
2019-03-18T00:32:00.187Z,96662.58
2019-03-18T00:33:37.354Z,96666.61
2019-03-18T00:35:15.556Z,96670.47
2019-03-18T00:36:50.760Z,96676.03
2019-03-18T00:38:26.798Z,96679.88
2019-03-18T00:40:05.431Z,96682.38
2019-03-18T00:41:41.209Z,96681.61
2019-03-18T00:43:16.644Z,96683.33
2019-03-18T00:45:01.926Z,96677.95
2019-03-18T00:46:38.915Z,96687.56
2019-03-18T00:48:14.508Z,96690.05
2019-03-18T00:49:49.892Z,96688.91
2019-03-18T00:51:25.108Z,96687.38
2019-03-18T00:53:00.927Z,96696.80
2019-03-18T00:54:36.447Z,96690.83
2019-03-18T00:56:11.959Z,96689.12
2019-03-18T00:57:47.511Z,96690.84
2019-03-18T00:59:23.181Z,96692.17
2019-03-18T01:00:58.527Z,96698.90
2019-03-18T01:02:33.839Z,96699.49
2019-03-18T01:04:09.981Z,96701.62
2019-03-18T01:05:45.338Z,96698.91
2019-03-18T01:07:20.786Z,96696.61
2019-03-18T01:08:56.556Z,96699.88
2019-03-18T01:10:32.550Z,96703.15
2019-03-18T01:12:09.026Z,96706.80
2019-03-18T01:13:44.340Z,96711.98
2019-03-18T01:15:27.937Z,96714.69
2019-03-18T01:16:57.352Z,96713.72
2019-03-18T01:18:34.163Z,96708.73
2019-03-18T01:20:12.089Z,96709.29
2019-03-18T01:21:47.508Z,96707.75
2019-03-18T01:23:22.918Z,96708.52
2019-03-18T01:24:58.511Z,96702.18
2019-03-18T01:26:34.326Z,96702.38
2019-03-18T01:28:10.121Z,96702.76
2019-03-18T01:29:51.763Z,96702.95
2019-03-18T01:31:28.676Z,96708.90
2019-03-18T01:33:04.032Z,96704.50
2019-03-18T01:34:40.954Z,96712.00
2019-03-18T01:36:16.945Z,96714.50
2019-03-18T01:37:54.109Z,96711.23
2019-03-18T01:39:29.322Z,96714.67
2019-03-18T01:41:04.714Z,96709.86
2019-03-18T01:42:40.773Z,96712.55
2019-03-18T01:44:16.981Z,96714.09
2019-03-18T01:45:52.200Z,96708.31
2019-03-18T01:47:27.327Z,96708.13
2019-03-18T01:49:02.754Z,96712.17
2019-03-18T01:50:38.576Z,96712.36
2019-03-18T01:52:13.734Z,96713.13
2019-03-18T01:53:48.895Z,96718.91
2019-03-18T01:55:24.250Z,96714.28
2019-03-18T01:56:59.636Z,96718.71
2019-03-18T01:58:34.707Z,96716.59
2019-03-18T02:00:10.526Z,96722.76
2019-03-18T02:01:45.651Z,96716.79
2019-03-18T02:03:21.911Z,96715.64
2019-03-18T02:04:57.574Z,96708.91
2019-03-18T02:06:32.886Z,96711.59
2019-03-18T02:08:08.281Z,96707.36
2019-03-18T02:09:47.898Z,96709.09
2019-03-18T02:11:23.495Z,96713.33
2019-03-18T02:12:58.749Z,96708.91
2019-03-18T02:14:34.185Z,96707.55
2019-03-18T02:16:12.566Z,96711.59
2019-03-18T02:17:47.736Z,96711.59
2019-03-18T02:19:26.203Z,96699.48
2019-03-18T02:21:01.507Z,96701.40
2019-03-18T02:22:37.017Z,96701.40
2019-03-18T02:24:12.440Z,96716.22
2019-03-18T02:25:48.030Z,96715.06
2019-03-18T02:27:24.056Z,96713.33
2019-03-18T02:28:59.912Z,96706.79
2019-03-18T02:30:37.767Z,96718.72
2019-03-18T02:32:13.332Z,96715.45
2019-03-18T02:33:49.351Z,96722.56
2019-03-18T02:35:26.363Z,96721.42
2019-03-18T02:37:01.594Z,96718.53
2019-03-18T02:38:36.848Z,96723.50
2019-03-18T02:40:12.083Z,96723.70
2019-03-18T02:41:48.524Z,96727.73
2019-03-18T02:43:24.089Z,96722.73
2019-03-18T02:44:59.660Z,96726.97
2019-03-18T02:46:35.019Z,96727.73
2019-03-18T02:48:10.317Z,96727.94
2019-03-18T02:49:47.743Z,96728.32
2019-03-18T02:51:22.862Z,96723.89
2019-03-18T02:52:58.787Z,96725.45
2019-03-18T02:54:33.985Z,96729.88
2019-03-18T02:56:10.782Z,96726.42
2019-03-18T02:57:48.233Z,96722.18
2019-03-18T02:59:23.609Z,96727.56
2019-03-18T03:01:00.914Z,96729.49
2019-03-18T03:02:36.312Z,96718.52
2019-03-18T03:04:11.723Z,96721.80
2019-03-18T03:05:47.562Z,96727.56
2019-03-18T03:07:25.133Z,96729.88
2019-03-18T03:09:00.566Z,96728.51
2019-03-18T03:10:37.187Z,96721.80
2019-03-18T03:12:13.848Z,96725.06
2019-03-18T03:13:49.081Z,96727.18
2019-03-18T03:15:24.319Z,96725.45
2019-03-18T03:16:59.607Z,96723.14
2019-03-18T03:18:34.891Z,96724.88
2019-03-18T03:20:16.589Z,96720.83
2019-03-18T03:21:51.757Z,96723.14
2019-03-18T03:23:31.230Z,96733.72
2019-03-18T03:25:08.099Z,96739.49
2019-03-18T03:26:43.594Z,96744.11
2019-03-18T03:28:19.209Z,96737.38
2019-03-18T03:29:54.493Z,96732.56
2019-03-18T03:31:29.806Z,96737.95
2019-03-18T03:33:05.107Z,96742.19
2019-03-18T03:34:40.675Z,96736.61
2019-03-18T03:36:16.206Z,96740.27
2019-03-18T03:37:52.300Z,96736.42
2019-03-18T03:39:27.394Z,96748.15
2019-03-18T03:41:02.551Z,96745.64
2019-03-18T03:42:38.228Z,96747.37
2019-03-18T03:44:13.344Z,96754.87
2019-03-18T03:45:48.654Z,96758.33
2019-03-18T03:47:23.732Z,96754.48
2019-03-18T03:48:58.827Z,96758.52
2019-03-18T03:50:34.283Z,96751.78
2019-03-18T03:52:09.460Z,96747.39
2019-03-18T03:53:44.777Z,96750.44
2019-03-18T03:55:19.966Z,96753.55
2019-03-18T03:56:55.163Z,96752.55
2019-03-18T03:58:31.494Z,96749.50
2019-03-18T04:00:08.550Z,96754.50
2019-03-18T04:01:43.637Z,96755.83
2019-03-18T04:03:19.322Z,96753.92
2019-03-18T04:04:54.770Z,96769.13
2019-03-18T04:06:30.245Z,96769.70
2019-03-18T04:08:05.644Z,96771.23
2019-03-18T04:09:41.248Z,96773.94
2019-03-18T04:11:16.740Z,96777.37
2019-03-18T04:12:51.926Z,96774.10
2019-03-18T04:14:28.238Z,96788.17
2019-03-18T04:16:06.554Z,96787.97
2019-03-18T04:17:41.899Z,96792.77
2019-03-18T04:19:16.938Z,96779.70
2019-03-18T04:20:55.080Z,96790.06
2019-03-18T04:22:30.582Z,96793.92
2019-03-18T04:24:08.538Z,96801.61
2019-03-18T04:25:43.866Z,96793.51
2019-03-18T04:27:18.952Z,96797.34
2019-03-18T04:28:54.825Z,96798.52
2019-03-18T04:30:32.226Z,96799.66
2019-03-18T04:32:07.921Z,96801.20
2019-03-18T04:33:43.290Z,96798.70
2019-03-18T04:35:18.616Z,96801.39
2019-03-18T04:36:53.998Z,96800.02
2019-03-18T04:38:29.048Z,96813.09
2019-03-18T04:40:06.869Z,96808.85
2019-03-18T04:41:43.714Z,96805.39
2019-03-18T04:43:19.357Z,96810.77
2019-03-18T04:44:54.837Z,96810.97
2019-03-18T04:46:31.097Z,96811.36
2019-03-18T04:48:06.440Z,96810.02
2019-03-18T04:49:42.997Z,96822.72
2019-03-18T04:51:18.648Z,96818.48
2019-03-18T04:52:54.139Z,96820.20
2019-03-18T04:54:29.394Z,96820.98
2019-03-18T04:56:04.779Z,96826.75
2019-03-18T04:57:39.985Z,96825.98
2019-03-18T04:59:21.324Z,96828.85
2019-03-18T05:01:04.487Z,96832.13
2019-03-18T05:02:41.326Z,96827.91
2019-03-18T05:04:16.415Z,96835.40
2019-03-18T05:05:51.592Z,96838.08
2019-03-18T05:07:26.944Z,96833.84
2019-03-18T05:09:02.498Z,96834.05
2019-03-18T05:10:40.107Z,96834.62
2019-03-18T05:12:15.700Z,96836.17
2019-03-18T05:13:50.984Z,96836.75
2019-03-18T05:15:28.671Z,96850.39
2019-03-18T05:17:03.795Z,96855.95
2019-03-18T05:18:40.283Z,96856.16
2019-03-18T05:20:15.785Z,96862.11
2019-03-18T05:21:51.586Z,96856.14
2019-03-18T05:23:26.753Z,96860.95
2019-03-18T05:25:01.976Z,96865.56
2019-03-18T05:26:37.167Z,96867.87
2019-03-18T05:28:12.880Z,96873.63
2019-03-18T05:29:49.863Z,96877.47
2019-03-18T05:31:26.668Z,96880.53
2019-03-18T05:33:02.013Z,96882.05
2019-03-18T05:34:37.488Z,96893.39
2019-03-18T05:36:12.924Z,96886.66
2019-03-18T05:37:55.317Z,96903.58
2019-03-18T05:39:30.956Z,96900.52
2019-03-18T05:41:06.020Z,96907.06
2019-03-18T05:42:41.451Z,96915.52
2019-03-18T05:44:18.368Z,96918.38
2019-03-18T05:45:53.708Z,96916.84
2019-03-18T05:47:38.601Z,96921.85
2019-03-18T05:49:06.239Z,96929.15
2019-03-18T05:50:41.380Z,96929.89
2019-03-18T05:52:16.871Z,96930.67
2019-03-18T05:53:51.943Z,96933.16
2019-03-18T05:55:28.741Z,96936.99
2019-03-18T05:57:03.817Z,96949.67
2019-03-18T05:58:41.880Z,96952.56
2019-03-18T06:00:18.016Z,96955.26
2019-03-18T06:01:53.207Z,96963.73
2019-03-18T06:03:28.406Z,96965.45
2019-03-18T06:05:03.718Z,96963.91
2019-03-18T06:06:39.275Z,96969.48
2019-03-18T06:08:16.598Z,96977.55
2019-03-18T06:09:51.755Z,96969.48
2019-03-18T06:11:27.344Z,96976.78
2019-03-18T06:13:04.424Z,96990.27
2019-03-18T06:14:42.489Z,96989.86
2019-03-18T06:16:19.922Z,96996.22
2019-03-18T06:18:02.175Z,97002.74
2019-03-18T06:19:54.478Z,97005.23
2019-03-18T06:21:32.438Z,97007.52
2019-03-18T06:23:08.179Z,97016.94
2019-03-18T06:24:46.635Z,97025.98
2019-03-18T06:26:28.133Z,97033.89
2019-03-18T06:28:06.438Z,97033.12
2019-03-18T06:29:44.712Z,97043.31
2019-03-18T06:31:20.161Z,97041.99
2019-03-18T06:32:56.467Z,97048.19
2019-03-18T06:34:34.522Z,97050.47
2019-03-18T06:36:13.534Z,97067.02
2019-03-18T06:37:51.970Z,97066.45
2019-03-18T06:39:30.873Z,97071.06
2019-03-18T06:41:06.128Z,97082.66
2019-03-18T06:42:43.517Z,97081.28
2019-03-18T06:44:18.807Z,97087.64
2019-03-18T06:45:54.342Z,97090.50
2019-03-18T06:47:30.001Z,97097.50
2019-03-18T06:49:08.047Z,97096.56
2019-03-18T06:50:43.306Z,97094.44
2019-03-18T06:52:19.969Z,97102.45
2019-03-18T06:53:56.123Z,97102.05
2019-03-18T06:55:31.345Z,97113.71
2019-03-18T06:57:09.630Z,97119.67
2019-03-18T06:58:46.229Z,97129.91
2019-03-18T07:00:21.691Z,97131.61
2019-03-18T07:02:04.699Z,97127.77
2019-03-18T07:03:40.941Z,97137.98
2019-03-18T07:05:17.133Z,97133.94
2019-03-18T07:06:53.853Z,97144.95
2019-03-18T07:08:33.741Z,97141.14
2019-03-18T07:10:09.374Z,97154.61
2019-03-18T07:11:44.476Z,97155.22
2019-03-18T07:13:19.617Z,97159.53
2019-03-18T07:14:55.968Z,97160.88
2019-03-18T07:16:31.289Z,97167.64
2019-03-18T07:18:17.698Z,97173.60
2019-03-18T07:19:43.235Z,97179.39
2019-03-18T07:21:18.385Z,97183.27
2019-03-18T07:22:54.539Z,97181.37
2019-03-18T07:24:35.119Z,97182.89
2019-03-18T07:26:10.269Z,97184.20
2019-03-18T07:27:45.389Z,97188.66
2019-03-18T07:29:26.208Z,97199.83
2019-03-18T07:31:01.366Z,97194.64
2019-03-18T07:32:36.682Z,97205.79
2019-03-18T07:34:11.901Z,97204.23
2019-03-18T07:35:47.021Z,97217.34
2019-03-18T07:37:24.017Z,97217.94
2019-03-18T07:39:01.834Z,97221.25
2019-03-18T07:40:37.504Z,97226.06
2019-03-18T07:42:15.352Z,97237.45
2019-03-18T07:43:50.926Z,97239.47
2019-03-18T07:45:27.522Z,97245.67
2019-03-18T07:47:02.883Z,97251.63
2019-03-18T07:48:39.438Z,97255.80
2019-03-18T07:50:15.239Z,97257.31
2019-03-18T07:51:52.058Z,97256.91
2019-03-18T07:53:27.295Z,97267.08
2019-03-18T07:55:02.644Z,97272.39
2019-03-18T07:56:37.920Z,97275.81
2019-03-18T07:58:13.528Z,97283.36
2019-03-18T07:59:49.973Z,97287.82
2019-03-18T08:01:29.955Z,97299.78
2019-03-18T08:03:05.566Z,97299.81
2019-03-18T08:04:43.890Z,97304.06
2019-03-18T08:06:19.256Z,97303.33
2019-03-18T08:07:54.464Z,97308.14
2019-03-18T08:09:30.064Z,97312.92
2019-03-18T08:11:10.154Z,97312.14
2019-03-18T08:12:46.116Z,97310.55
2019-03-18T08:14:21.841Z,97316.92
2019-03-18T08:15:57.103Z,97320.84
2019-03-18T08:17:32.263Z,97320.84
2019-03-18T08:19:10.396Z,97326.64
2019-03-18T08:20:45.531Z,97340.56
2019-03-18T08:22:23.013Z,97340.64
2019-03-18T08:23:58.269Z,97342.77
2019-03-18T08:25:41.219Z,97348.77
2019-03-18T08:27:19.738Z,97343.13
2019-03-18T08:28:55.027Z,97343.38
2019-03-18T08:30:30.408Z,97348.44
2019-03-18T08:32:08.391Z,97347.70
2019-03-18T08:33:44.130Z,97352.42
2019-03-18T08:35:19.227Z,97352.22
2019-03-18T08:36:54.790Z,97348.37
2019-03-18T08:38:32.451Z,97348.55
2019-03-18T08:40:08.190Z,97344.67
2019-03-18T08:41:43.815Z,97342.95
2019-03-18T08:43:28.858Z,97341.27
2019-03-18T08:45:06.469Z,97347.23
2019-03-18T08:46:46.981Z,97339.38
2019-03-18T08:48:24.685Z,97334.72
2019-03-18T08:50:01.094Z,97336.64
2019-03-18T08:51:37.824Z,97330.14
2019-03-18T08:53:13.562Z,97330.20
2019-03-18T08:54:49.878Z,97320.21
2019-03-18T08:56:25.974Z,97318.69
2019-03-18T08:58:01.264Z,97319.31
2019-03-18T08:59:36.594Z,97315.53
2019-03-18T09:01:13.922Z,97311.93
2019-03-18T09:02:48.767Z,97293.95
2019-03-18T09:04:24.391Z,97283.16
2019-03-18T09:06:01.819Z,97277.00
2019-03-18T09:07:44.899Z,97260.62
2019-03-18T09:09:20.589Z,97264.92
2019-03-18T09:10:55.873Z,97258.23
2019-03-18T09:12:33.449Z,97246.46
2019-03-18T09:14:09.035Z,97237.98
2019-03-18T09:15:50.085Z,97235.45
2019-03-18T09:17:25.243Z,97218.87
2019-03-18T09:19:08.763Z,97200.72
2019-03-18T09:20:44.173Z,97191.27
2019-03-18T09:22:19.976Z,97186.03
2019-03-18T09:23:56.726Z,97182.76
2019-03-18T09:25:32.983Z,97170.22
2019-03-18T09:27:12.351Z,97161.55
2019-03-18T09:28:49.203Z,97155.38
2019-03-18T09:30:31.366Z,97140.13
2019-03-18T09:32:12.041Z,97137.63
2019-03-18T09:33:52.485Z,97141.09
2019-03-18T09:35:28.054Z,97145.15
2019-03-18T09:37:04.441Z,97150.35
2019-03-18T09:38:39.583Z,97142.80
2019-03-18T09:40:16.473Z,97138.17
2019-03-18T09:41:55.439Z,97130.25
2019-03-18T09:43:36.798Z,97131.80
2019-03-18T09:45:21.067Z,97117.52
2019-03-18T09:46:56.858Z,97129.10
2019-03-18T09:48:32.463Z,97113.08
2019-03-18T09:50:09.261Z,97112.50
2019-03-18T09:51:45.515Z,97120.19
2019-03-18T09:53:20.753Z,97115.78
2019-03-18T09:54:57.567Z,97118.09
2019-03-18T09:56:34.226Z,97130.86
2019-03-18T09:58:10.261Z,97124.88
2019-03-18T09:59:45.874Z,97126.95
2019-03-18T10:01:24.541Z,97134.28
2019-03-18T10:03:00.859Z,97131.58
2019-03-18T10:04:48.303Z,97125.05
2019-03-18T10:06:18.160Z,97123.69
2019-03-18T10:07:54.628Z,97118.13
2019-03-18T10:09:42.555Z,97119.45
2019-03-18T10:11:19.705Z,97114.02
2019-03-18T10:12:55.551Z,97110.42
2019-03-18T10:14:32.294Z,97112.23
2019-03-18T10:16:08.217Z,97108.76
2019-03-18T10:17:44.151Z,97112.80
2019-03-18T10:19:32.755Z,97105.08
2019-03-18T10:21:04.579Z,97104.45
2019-03-18T10:22:38.951Z,97102.56
2019-03-18T10:24:14.648Z,97098.55
2019-03-18T10:25:50.465Z,97091.54
2019-03-18T10:27:28.788Z,97095.75
2019-03-18T10:29:09.657Z,97098.44
2019-03-18T10:30:44.757Z,97101.72
2019-03-18T10:32:21.129Z,97087.05
2019-03-18T10:33:56.916Z,97082.95
2019-03-18T10:35:34.445Z,97080.20
2019-03-18T10:37:13.889Z,97066.43
2019-03-18T10:38:54.101Z,97061.89
2019-03-18T10:40:33.266Z,97037.38
2019-03-18T10:42:12.078Z,97016.03
2019-03-18T10:43:48.263Z,97006.70
2019-03-18T10:45:26.302Z,96992.41
2019-03-18T10:47:02.789Z,96977.93
2019-03-18T10:48:39.546Z,96990.46
2019-03-18T10:50:21.333Z,96992.35
2019-03-18T10:51:57.016Z,96972.38
2019-03-18T10:53:34.843Z,96976.61
2019-03-18T10:55:10.944Z,96975.71
2019-03-18T10:56:48.470Z,96980.52
2019-03-18T10:58:24.575Z,96979.00
2019-03-18T11:00:01.232Z,96974.24
2019-03-18T11:01:41.147Z,96974.59
2019-03-18T11:03:19.706Z,96986.00
2019-03-18T11:04:54.938Z,96984.81
2019-03-18T11:06:30.515Z,96980.23
2019-03-18T11:08:15.201Z,96985.63
2019-03-18T11:09:49.913Z,96983.12
2019-03-18T11:11:26.145Z,96990.37
2019-03-18T11:13:07.488Z,96995.64
2019-03-18T11:14:53.633Z,96985.44
2019-03-18T11:16:31.322Z,96991.48
2019-03-18T11:18:14.279Z,97000.98
2019-03-18T11:19:58.613Z,97008.06
2019-03-18T11:21:38.857Z,97001.57
2019-03-18T11:23:15.576Z,96989.92
2019-03-18T11:24:54.182Z,96992.63
2019-03-18T11:26:36.845Z,96995.31
2019-03-18T11:28:17.532Z,97001.77
2019-03-18T11:29:59.816Z,96996.81
2019-03-18T11:31:36.591Z,96996.70
2019-03-18T11:33:12.494Z,96991.00
2019-03-18T11:34:54.146Z,96983.45
2019-03-18T11:36:33.557Z,96981.09
2019-03-18T11:38:14.037Z,96984.76
2019-03-18T11:39:51.174Z,96979.08
2019-03-18T11:41:28.032Z,96975.00
2019-03-18T11:43:06.989Z,96966.19
2019-03-18T11:44:44.271Z,96972.32
2019-03-18T11:46:25.375Z,96973.95
2019-03-18T11:48:02.038Z,96959.22
2019-03-18T11:49:39.829Z,96963.81
2019-03-18T11:51:21.799Z,96966.44
2019-03-18T11:52:59.418Z,96963.81
2019-03-18T11:54:42.110Z,96951.94
2019-03-18T11:56:20.297Z,96961.47
2019-03-18T11:57:59.230Z,96962.32
2019-03-18T11:59:36.442Z,96965.61
2019-03-18T12:01:18.048Z,96966.48
2019-03-18T12:02:57.566Z,96960.70
2019-03-18T12:04:34.066Z,96955.53
2019-03-18T12:06:11.880Z,96962.03
2019-03-18T12:07:56.715Z,96977.53
2019-03-18T12:09:42.067Z,96966.83
2019-03-18T12:11:19.870Z,96966.78
2019-03-18T12:12:57.619Z,96952.58
2019-03-18T12:14:32.799Z,96955.05
2019-03-18T12:16:08.231Z,96958.92
2019-03-18T12:17:45.304Z,96944.63
2019-03-18T12:19:23.197Z,96951.05
2019-03-18T12:21:01.034Z,96945.98
2019-03-18T12:22:36.282Z,96945.36
2019-03-18T12:24:12.005Z,96948.47
2019-03-18T12:25:47.603Z,96952.95
2019-03-18T12:27:23.407Z,96947.13
2019-03-18T12:28:59.054Z,96938.40
2019-03-18T12:30:37.014Z,96932.61
2019-03-18T12:32:13.051Z,96935.00
2019-03-18T12:33:57.257Z,96911.11
2019-03-18T12:35:36.129Z,96912.95
2019-03-18T12:37:22.325Z,96905.49
2019-03-18T12:39:03.063Z,96921.20
2019-03-18T12:40:38.846Z,96920.69
2019-03-18T12:42:15.677Z,96925.42
2019-03-18T12:44:05.807Z,96921.67
2019-03-18T12:45:52.963Z,96925.56
2019-03-18T12:47:31.269Z,96925.16
2019-03-18T12:49:06.583Z,96931.91
2019-03-18T12:50:55.781Z,96934.78
2019-03-18T12:52:27.545Z,96937.86
2019-03-18T12:54:03.923Z,96947.53
2019-03-18T12:55:43.247Z,96943.05
2019-03-18T12:57:18.891Z,96941.84
2019-03-18T12:58:55.952Z,96953.13
2019-03-18T13:00:33.682Z,96940.80
2019-03-18T13:02:09.257Z,96942.86
2019-03-18T13:03:47.811Z,96938.38
2019-03-18T13:05:26.297Z,96931.37
2019-03-18T13:07:01.598Z,96930.11
2019-03-18T13:08:43.020Z,96919.42
2019-03-18T13:10:24.139Z,96913.59
2019-03-18T13:11:59.654Z,96911.11
2019-03-18T13:13:36.381Z,96912.53
2019-03-18T13:15:15.391Z,96908.87
2019-03-18T13:16:53.589Z,96884.26
2019-03-18T13:18:29.252Z,96893.08
2019-03-18T13:20:05.724Z,96894.75
2019-03-18T13:22:00.864Z,96887.90
2019-03-18T13:23:43.095Z,96886.16
2019-03-18T13:25:18.475Z,96884.02
2019-03-18T13:26:54.533Z,96889.53
2019-03-18T13:28:38.718Z,96896.61
2019-03-18T13:30:24.190Z,96899.52
2019-03-18T13:32:08.580Z,96906.31
2019-03-18T13:33:45.265Z,96914.00
2019-03-18T13:35:20.910Z,96917.87
2019-03-18T13:36:57.765Z,96930.73
2019-03-18T13:38:37.254Z,96922.20
2019-03-18T13:40:13.015Z,96941.98
2019-03-18T13:41:52.345Z,96945.22
2019-03-18T13:43:39.520Z,96950.43
2019-03-18T13:45:16.583Z,96953.41
2019-03-18T13:46:51.854Z,96951.38
2019-03-18T13:48:28.219Z,96957.57
2019-03-18T13:50:03.629Z,96961.27
2019-03-18T13:51:38.824Z,96972.66
2019-03-18T13:53:17.455Z,96975.22
2019-03-18T13:54:57.362Z,96979.79
2019-03-18T13:56:36.444Z,96995.48
2019-03-18T13:58:12.179Z,96992.70
2019-03-18T13:59:57.544Z,96993.84
2019-03-18T14:01:36.725Z,96999.55
2019-03-18T14:03:14.327Z,97007.77
2019-03-18T14:04:49.638Z,97018.91
2019-03-18T14:06:25.127Z,97042.72
2019-03-18T14:08:01.371Z,97042.98
2019-03-18T14:09:40.867Z,97057.66
2019-03-18T14:11:16.686Z,97055.85
2019-03-18T14:12:55.415Z,97065.80
2019-03-18T14:14:31.973Z,97065.98
2019-03-18T14:16:13.907Z,97066.67
2019-03-18T14:17:50.339Z,97065.47
2019-03-18T14:19:25.525Z,97051.85
2019-03-18T14:21:05.036Z,97056.42
2019-03-18T14:22:43.418Z,97048.52
2019-03-18T14:24:18.611Z,97056.50
2019-03-18T14:25:54.541Z,97060.19
2019-03-18T14:27:29.848Z,97051.84
2019-03-18T14:29:08.271Z,97049.15
2019-03-18T14:30:54.216Z,97045.77
2019-03-18T14:32:29.426Z,97051.16
2019-03-18T14:34:08.234Z,97051.67
2019-03-18T14:35:43.926Z,97054.64
2019-03-18T14:37:36.987Z,97056.91
2019-03-18T14:39:12.257Z,97063.63
2019-03-18T14:40:47.537Z,97063.48
2019-03-18T14:42:27.914Z,97060.10
2019-03-18T14:44:07.493Z,97056.89
2019-03-18T14:45:43.994Z,97052.44
2019-03-18T14:47:19.363Z,97044.73
2019-03-18T14:48:54.923Z,97045.45
2019-03-18T14:50:38.902Z,97044.49
2019-03-18T14:52:18.560Z,97039.41
2019-03-18T14:53:57.427Z,97035.91
2019-03-18T14:55:36.225Z,97029.59
2019-03-18T14:57:16.274Z,97032.00
2019-03-18T14:59:02.162Z,97046.11
2019-03-18T15:00:37.571Z,97034.45
2019-03-18T15:02:23.238Z,97048.72
2019-03-18T15:03:59.188Z,97039.73
2019-03-18T15:05:37.125Z,97039.09
2019-03-18T15:07:19.710Z,97035.05
2019-03-18T15:09:00.802Z,97027.16
2019-03-18T15:10:38.036Z,97024.22
2019-03-18T15:12:14.434Z,97026.25
2019-03-18T15:13:56.801Z,97022.25
2019-03-18T15:15:37.066Z,97022.92
2019-03-18T15:17:12.444Z,97031.18
2019-03-18T15:19:05.342Z,97029.11
2019-03-18T15:20:56.142Z,97025.73
2019-03-18T15:22:38.185Z,97026.51
2019-03-18T15:24:29.154Z,97027.40
2019-03-18T15:26:26.607Z,97023.62
2019-03-18T15:28:02.935Z,97021.27
2019-03-18T15:29:55.543Z,97014.05
2019-03-18T15:31:47.159Z,97020.45
2019-03-18T15:33:32.090Z,97018.45
2019-03-18T15:35:23.582Z,97023.21
2019-03-18T15:36:57.531Z,97007.64
2019-03-18T15:38:32.745Z,97012.10
2019-03-18T15:40:15.243Z,97004.57
2019-03-18T15:42:05.975Z,97009.07
2019-03-18T15:43:49.364Z,97005.55
2019-03-18T15:45:37.816Z,97009.04
2019-03-18T15:47:22.032Z,97010.49
2019-03-18T15:49:15.244Z,97011.93
2019-03-18T15:50:53.530Z,97008.67
2019-03-18T15:52:29.894Z,97010.16
2019-03-18T15:54:07.227Z,97016.95
2019-03-18T15:55:42.732Z,97015.08
2019-03-18T15:57:29.258Z,97018.05
2019-03-18T15:58:58.263Z,97025.33
2019-03-18T16:00:34.437Z,97030.53
2019-03-18T16:02:11.492Z,97016.31
2019-03-18T16:03:47.378Z,97033.38
2019-03-18T16:05:34.967Z,97046.13
2019-03-18T16:07:14.060Z,97038.50
2019-03-18T16:08:52.645Z,97040.16
2019-03-18T16:12:28.040Z,97045.68
2019-03-18T16:14:06.049Z,97044.94
2019-03-18T16:15:46.313Z,97044.30
2019-03-18T16:17:54.104Z,97056.92
2019-03-18T16:19:44.063Z,97060.11
2019-03-18T16:21:19.701Z,97060.00
2019-03-18T16:22:59.339Z,97055.16
2019-03-18T16:24:45.123Z,97062.20
2019-03-18T16:26:27.831Z,97070.38
2019-03-18T16:28:03.228Z,97078.17
2019-03-18T16:29:42.682Z,97076.08
2019-03-18T16:31:23.212Z,97080.12
2019-03-18T16:33:04.635Z,97083.29
2019-03-18T16:34:42.054Z,97084.12
2019-03-18T16:36:22.206Z,97080.98
2019-03-18T16:38:01.033Z,97084.98
2019-03-18T16:39:48.273Z,97091.02
2019-03-18T16:41:23.705Z,97082.61
2019-03-18T16:43:01.673Z,97089.69
2019-03-18T16:44:36.931Z,97083.33
2019-03-18T16:46:14.843Z,97104.63
2019-03-18T16:47:52.034Z,97101.14
2019-03-18T16:49:28.104Z,97103.50
2019-03-18T16:51:03.905Z,97106.59
2019-03-18T16:52:40.243Z,97112.19
2019-03-18T16:54:26.053Z,97109.88
2019-03-18T16:56:06.154Z,97115.36
2019-03-18T16:57:41.830Z,97107.83
2019-03-18T16:59:19.332Z,97115.38
2019-03-18T17:00:54.797Z,97115.22
2019-03-18T17:02:34.470Z,97114.89
2019-03-18T17:04:11.665Z,97116.59
2019-03-18T17:05:46.853Z,97115.23
2019-03-18T17:07:28.115Z,97115.85
2019-03-18T17:09:09.239Z,97113.39
2019-03-18T17:10:53.532Z,97117.27
2019-03-18T17:12:29.246Z,97112.11
2019-03-18T17:14:06.582Z,97106.72
2019-03-18T17:15:47.584Z,97111.73
2019-03-18T17:17:23.370Z,97115.42
2019-03-18T17:19:02.375Z,97116.64
2019-03-18T17:20:43.627Z,97118.98
2019-03-18T17:22:21.857Z,97129.83
2019-03-18T17:23:57.753Z,97133.91
2019-03-18T17:25:33.553Z,97137.40
2019-03-18T17:27:10.334Z,97146.48
2019-03-18T17:29:07.683Z,97150.73
2019-03-18T17:30:47.416Z,97149.42
2019-03-18T17:32:26.712Z,97160.66
2019-03-18T17:34:01.946Z,97165.13
2019-03-18T17:35:39.730Z,97174.46
2019-03-18T17:37:19.773Z,97170.62
2019-03-18T17:39:03.404Z,97177.05
2019-03-18T17:40:41.256Z,97183.05
2019-03-18T17:42:17.365Z,97181.17
2019-03-18T17:44:04.633Z,97190.07
2019-03-18T17:45:50.441Z,97189.72
2019-03-18T17:47:38.764Z,97200.75
2019-03-18T17:49:34.598Z,97210.06
2019-03-18T17:51:15.317Z,97216.44
2019-03-18T17:53:02.497Z,97221.66
2019-03-18T17:54:30.397Z,97219.17
2019-03-18T17:56:15.505Z,97225.16
2019-03-18T17:57:51.456Z,97228.64
2019-03-18T17:59:27.029Z,97231.92
2019-03-18T18:01:05.701Z,97228.45
2019-03-18T18:02:45.949Z,97234.05
2019-03-18T18:04:22.777Z,97233.28
2019-03-18T18:06:06.452Z,97241.03
2019-03-18T18:07:40.888Z,97235.20
2019-03-18T18:09:18.036Z,97236.59
2019-03-18T18:10:57.912Z,97239.09
2019-03-18T18:12:37.342Z,97236.00
2019-03-18T18:14:15.702Z,97235.45
2019-03-18T18:15:59.161Z,97241.81
2019-03-18T18:17:51.924Z,97243.94
2019-03-18T18:19:28.233Z,97244.34
2019-03-18T18:21:10.165Z,97249.55
2019-03-18T18:22:52.571Z,97251.09
2019-03-18T18:24:33.946Z,97253.98
2019-03-18T18:26:16.952Z,97253.98
2019-03-18T18:27:56.037Z,97257.66
2019-03-18T18:29:35.208Z,97262.86
2019-03-18T18:31:16.131Z,97266.55
2019-03-18T18:32:51.996Z,97275.59
2019-03-18T18:34:27.537Z,97274.03
2019-03-18T18:36:10.652Z,97273.08
2019-03-18T18:42:59.848Z,97286.38
2019-03-18T18:44:38.744Z,97291.37
2019-03-18T18:46:14.642Z,97291.92
2019-03-18T18:47:50.180Z,97292.48
2019-03-18T18:49:28.659Z,97294.19
2019-03-18T18:51:07.542Z,97298.60
2019-03-18T18:52:44.780Z,97301.13
2019-03-18T18:54:43.252Z,97307.66
2019-03-18T18:56:24.733Z,97313.61
2019-03-18T18:58:02.365Z,97319.56
2019-03-18T18:59:43.206Z,97317.79
2019-03-18T19:01:19.543Z,97321.61
2019-03-18T19:03:06.733Z,97320.01
2019-03-18T19:04:42.356Z,97326.32
2019-03-18T19:06:19.324Z,97335.77
2019-03-18T19:07:59.250Z,97334.79
2019-03-18T19:09:37.059Z,97345.14
2019-03-18T19:11:19.080Z,97340.45
2019-03-18T19:12:55.890Z,97342.91
2019-03-18T19:14:41.204Z,97350.52
2019-03-18T19:16:23.428Z,97351.42
2019-03-18T19:18:09.747Z,97358.11